sensor_id;sensor_type;location;lat;lon;timestamp;P1;durP1;ratioP1;P2;durP2;ratioP2
8564;SDS011;4320;51.498;6.556;2023-07-20T00:01:03;7.05;;;4.63;;
8564;SDS011;4320;51.498;6.556;2023-07-20T00:03:29;7.75;;;4.85;;
8564;SDS011;4320;51.498;6.556;2023-07-20T00:05:55;6.70;;;4.45;;
8564;SDS011;4320;51.498;6.556;2023-07-20T00:08:20;6.15;;;4.13;;
8564;SDS011;4320;51.498;6.556;2023-07-20T00:10:46;5.40;;;4.82;;
8564;SDS011;4320;51.498;6.556;2023-07-20T00:13:11;6.95;;;4.97;;
8564;SDS011;4320;51.498;6.556;2023-07-20T00:15:37;6.20;;;5.05;;
8564;SDS011;4320;51.498;6.556;2023-07-20T00:18:03;5.72;;;4.35;;
8564;SDS011;4320;51.498;6.556;2023-07-20T00:20:29;7.95;;;5.10;;
8564;SDS011;4320;51.498;6.556;2023-07-20T00:22:55;7.15;;;4.82;;
8564;SDS011;4320;51.498;6.556;2023-07-20T00:25:23;8.32;;;4.93;;
8564;SDS011;4320;51.498;6.556;2023-07-20T00:27:49;6.93;;;5.22;;
8564;SDS011;4320;51.498;6.556;2023-07-20T00:30:14;7.40;;;4.65;;
8564;SDS011;4320;51.498;6.556;2023-07-20T00:32:41;8.20;;;4.97;;
8564;SDS011;4320;51.498;6.556;2023-07-20T00:35:08;6.65;;;5.47;;
8564;SDS011;4320;51.498;6.556;2023-07-20T00:37:34;8.52;;;5.07;;
8564;SDS011;4320;51.498;6.556;2023-07-20T00:40:00;8.07;;;5.00;;
8564;SDS011;4320;51.498;6.556;2023-07-20T00:42:25;7.90;;;4.80;;
8564;SDS011;4320;51.498;6.556;2023-07-20T00:44:51;8.27;;;5.30;;
8564;SDS011;4320;51.498;6.556;2023-07-20T00:47:16;6.75;;;4.75;;
8564;SDS011;4320;51.498;6.556;2023-07-20T00:49:42;8.93;;;5.47;;
8564;SDS011;4320;51.498;6.556;2023-07-20T00:52:08;9.02;;;5.20;;
8564;SDS011;4320;51.498;6.556;2023-07-20T00:54:39;7.57;;;5.70;;
8564;SDS011;4320;51.498;6.556;2023-07-20T00:57:06;7.30;;;5.10;;
8564;SDS011;4320;51.498;6.556;2023-07-20T00:59:33;7.30;;;4.80;;
8564;SDS011;4320;51.498;6.556;2023-07-20T01:01:59;7.38;;;5.38;;
8564;SDS011;4320;51.498;6.556;2023-07-20T01:04:25;7.05;;;4.90;;
8564;SDS011;4320;51.498;6.556;2023-07-20T01:07:00;6.35;;;4.35;;
8564;SDS011;4320;51.498;6.556;2023-07-20T01:12:51;10.20;;;4.88;;
8564;SDS011;4320;51.498;6.556;2023-07-20T01:15:07;6.15;;;4.70;;
8564;SDS011;4320;51.498;6.556;2023-07-20T01:17:33;5.68;;;4.50;;
8564;SDS011;4320;51.498;6.556;2023-07-20T01:19:59;4.63;;;4.22;;
8564;SDS011;4320;51.498;6.556;2023-07-20T01:25:40;6.28;;;4.90;;
8564;SDS011;4320;51.498;6.556;2023-07-20T01:28:31;6.82;;;4.70;;
8564;SDS011;4320;51.498;6.556;2023-07-20T01:33:43;9.32;;;4.90;;
8564;SDS011;4320;51.498;6.556;2023-07-20T01:36:11;6.63;;;5.40;;
8564;SDS011;4320;51.498;6.556;2023-07-20T01:38:37;8.23;;;5.82;;
8564;SDS011;4320;51.498;6.556;2023-07-20T01:41:03;7.32;;;6.15;;
8564;SDS011;4320;51.498;6.556;2023-07-20T01:43:30;13.43;;;6.82;;
8564;SDS011;4320;51.498;6.556;2023-07-20T01:45:55;11.02;;;7.10;;
8564;SDS011;4320;51.498;6.556;2023-07-20T01:48:21;13.15;;;8.07;;
8564;SDS011;4320;51.498;6.556;2023-07-20T01:50:47;14.65;;;7.70;;
8564;SDS011;4320;51.498;6.556;2023-07-20T01:53:12;12.75;;;8.00;;
8564;SDS011;4320;51.498;6.556;2023-07-20T01:55:38;15.23;;;8.23;;
8564;SDS011;4320;51.498;6.556;2023-07-20T01:58:03;12.25;;;7.10;;
8564;SDS011;4320;51.498;6.556;2023-07-20T02:00:31;11.63;;;8.65;;
8564;SDS011;4320;51.498;6.556;2023-07-20T02:02:56;15.00;;;8.00;;
8564;SDS011;4320;51.498;6.556;2023-07-20T02:05:22;19.50;;;9.68;;
8564;SDS011;4320;51.498;6.556;2023-07-20T02:07:48;17.40;;;9.85;;
8564;SDS011;4320;51.498;6.556;2023-07-20T02:10:13;16.25;;;9.57;;
8564;SDS011;4320;51.498;6.556;2023-07-20T02:12:39;19.55;;;9.85;;
8564;SDS011;4320;51.498;6.556;2023-07-20T02:15:05;12.75;;;9.70;;
8564;SDS011;4320;51.498;6.556;2023-07-20T02:17:31;17.80;;;10.43;;
8564;SDS011;4320;51.498;6.556;2023-07-20T02:19:56;18.00;;;9.93;;
8564;SDS011;4320;51.498;6.556;2023-07-20T02:22:25;15.13;;;9.68;;
8564;SDS011;4320;51.498;6.556;2023-07-20T02:24:50;13.23;;;8.73;;
8564;SDS011;4320;51.498;6.556;2023-07-20T02:27:16;14.32;;;9.45;;
8564;SDS011;4320;51.498;6.556;2023-07-20T02:29:42;14.95;;;10.50;;
8564;SDS011;4320;51.498;6.556;2023-07-20T02:32:08;17.55;;;10.65;;
8564;SDS011;4320;51.498;6.556;2023-07-20T02:34:35;16.33;;;9.65;;
8564;SDS011;4320;51.498;6.556;2023-07-20T02:37:01;15.35;;;10.40;;
8564;SDS011;4320;51.498;6.556;2023-07-20T02:39:27;14.60;;;10.70;;
8564;SDS011;4320;51.498;6.556;2023-07-20T02:41:53;13.90;;;9.73;;
8564;SDS011;4320;51.498;6.556;2023-07-20T02:44:19;14.63;;;9.77;;
8564;SDS011;4320;51.498;6.556;2023-07-20T02:46:44;15.27;;;10.30;;
8564;SDS011;4320;51.498;6.556;2023-07-20T02:49:10;17.02;;;11.63;;
8564;SDS011;4320;51.498;6.556;2023-07-20T02:51:36;17.63;;;11.27;;
8564;SDS011;4320;51.498;6.556;2023-07-20T02:54:01;26.48;;;12.23;;
8564;SDS011;4320;51.498;6.556;2023-07-20T02:56:28;16.75;;;10.30;;
8564;SDS011;4320;51.498;6.556;2023-07-20T02:58:54;14.82;;;10.77;;
8564;SDS011;4320;51.498;6.556;2023-07-20T03:01:19;17.67;;;10.68;;
8564;SDS011;4320;51.498;6.556;2023-07-20T03:03:45;18.52;;;11.75;;
8564;SDS011;4320;51.498;6.556;2023-07-20T03:06:12;15.38;;;11.60;;
8564;SDS011;4320;51.498;6.556;2023-07-20T03:08:39;18.88;;;11.45;;
8564;SDS011;4320;51.498;6.556;2023-07-20T03:11:06;16.45;;;11.70;;
8564;SDS011;4320;51.498;6.556;2023-07-20T03:13:32;20.65;;;11.90;;
8564;SDS011;4320;51.498;6.556;2023-07-20T03:15:57;22.90;;;12.20;;
8564;SDS011;4320;51.498;6.556;2023-07-20T03:18:23;18.70;;;11.93;;
8564;SDS011;4320;51.498;6.556;2023-07-20T03:20:49;18.85;;;11.77;;
8564;SDS011;4320;51.498;6.556;2023-07-20T03:23:14;20.02;;;11.23;;
8564;SDS011;4320;51.498;6.556;2023-07-20T03:25:41;17.05;;;10.80;;
8564;SDS011;4320;51.498;6.556;2023-07-20T03:28:07;17.55;;;12.43;;
8564;SDS011;4320;51.498;6.556;2023-07-20T03:30:32;17.45;;;11.63;;
8564;SDS011;4320;51.498;6.556;2023-07-20T03:32:58;20.08;;;13.23;;
8564;SDS011;4320;51.498;6.556;2023-07-20T03:35:24;17.08;;;13.15;;
8564;SDS011;4320;51.498;6.556;2023-07-20T03:37:49;21.45;;;13.93;;
8564;SDS011;4320;51.498;6.556;2023-07-20T03:40:15;16.88;;;13.23;;
8564;SDS011;4320;51.498;6.556;2023-07-20T03:42:41;17.83;;;14.07;;
8564;SDS011;4320;51.498;6.556;2023-07-20T03:45:07;19.15;;;14.60;;
8564;SDS011;4320;51.498;6.556;2023-07-20T03:47:33;25.63;;;16.67;;
8564;SDS011;4320;51.498;6.556;2023-07-20T03:49:58;22.50;;;16.83;;
8564;SDS011;4320;51.498;6.556;2023-07-20T03:52:24;21.98;;;16.33;;
8564;SDS011;4320;51.498;6.556;2023-07-20T03:54:50;21.63;;;16.33;;
8564;SDS011;4320;51.498;6.556;2023-07-20T03:57:18;20.20;;;15.65;;
8564;SDS011;4320;51.498;6.556;2023-07-20T03:59:47;18.23;;;15.70;;
8564;SDS011;4320;51.498;6.556;2023-07-20T04:02:13;19.00;;;15.15;;
8564;SDS011;4320;51.498;6.556;2023-07-20T04:04:39;18.92;;;15.90;;
8564;SDS011;4320;51.498;6.556;2023-07-20T04:07:06;21.05;;;15.70;;
8564;SDS011;4320;51.498;6.556;2023-07-20T04:09:32;18.48;;;14.68;;
8564;SDS011;4320;51.498;6.556;2023-07-20T04:11:58;19.27;;;15.23;;
8564;SDS011;4320;51.498;6.556;2023-07-20T04:14:23;19.42;;;15.00;;
8564;SDS011;4320;51.498;6.556;2023-07-20T04:16:49;21.60;;;15.65;;
8564;SDS011;4320;51.498;6.556;2023-07-20T04:19:16;17.50;;;15.07;;
8564;SDS011;4320;51.498;6.556;2023-07-20T04:21:42;17.83;;;14.90;;
8564;SDS011;4320;51.498;6.556;2023-07-20T04:24:08;20.95;;;14.38;;
8564;SDS011;4320;51.498;6.556;2023-07-20T04:26:34;18.08;;;13.38;;
8564;SDS011;4320;51.498;6.556;2023-07-20T04:29:00;17.55;;;13.57;;
8564;SDS011;4320;51.498;6.556;2023-07-20T04:31:26;19.27;;;13.82;;
8564;SDS011;4320;51.498;6.556;2023-07-20T04:33:51;18.83;;;13.90;;
8564;SDS011;4320;51.498;6.556;2023-07-20T04:36:17;17.77;;;13.73;;
8564;SDS011;4320;51.498;6.556;2023-07-20T04:38:44;17.83;;;14.32;;
8564;SDS011;4320;51.498;6.556;2023-07-20T04:41:10;17.63;;;13.60;;
8564;SDS011;4320;51.498;6.556;2023-07-20T04:43:43;18.02;;;12.88;;
8564;SDS011;4320;51.498;6.556;2023-07-20T04:46:09;14.40;;;11.07;;
8564;SDS011;4320;51.498;6.556;2023-07-20T04:48:35;14.77;;;10.75;;
8564;SDS011;4320;51.498;6.556;2023-07-20T04:51:01;16.38;;;11.50;;
8564;SDS011;4320;51.498;6.556;2023-07-20T04:53:27;17.83;;;12.15;;
8564;SDS011;4320;51.498;6.556;2023-07-20T04:55:53;16.75;;;12.45;;
8564;SDS011;4320;51.498;6.556;2023-07-20T04:58:19;15.18;;;13.15;;
8564;SDS011;4320;51.498;6.556;2023-07-20T05:00:46;15.40;;;13.65;;
8564;SDS011;4320;51.498;6.556;2023-07-20T05:03:13;16.83;;;13.23;;
8564;SDS011;4320;51.498;6.556;2023-07-20T05:05:38;15.85;;;12.75;;
8564;SDS011;4320;51.498;6.556;2023-07-20T05:08:04;20.80;;;12.68;;
8564;SDS011;4320;51.498;6.556;2023-07-20T05:10:30;13.07;;;11.15;;
8564;SDS011;4320;51.498;6.556;2023-07-20T05:12:55;15.43;;;11.20;;
8564;SDS011;4320;51.498;6.556;2023-07-20T05:15:21;17.10;;;12.20;;
8564;SDS011;4320;51.498;6.556;2023-07-20T05:17:46;14.05;;;11.23;;
8564;SDS011;4320;51.498;6.556;2023-07-20T05:20:13;11.27;;;9.73;;
8564;SDS011;4320;51.498;6.556;2023-07-20T05:22:39;15.43;;;10.30;;
8564;SDS011;4320;51.498;6.556;2023-07-20T05:25:08;12.15;;;10.00;;
8564;SDS011;4320;51.498;6.556;2023-07-20T05:27:36;12.00;;;10.05;;
8564;SDS011;4320;51.498;6.556;2023-07-20T05:30:03;13.32;;;10.57;;
8564;SDS011;4320;51.498;6.556;2023-07-20T05:32:29;10.35;;;8.55;;
8564;SDS011;4320;51.498;6.556;2023-07-20T05:34:55;7.93;;;7.13;;
8564;SDS011;4320;51.498;6.556;2023-07-20T05:37:21;9.35;;;7.72;;
8564;SDS011;4320;51.498;6.556;2023-07-20T05:39:46;10.13;;;7.68;;
8564;SDS011;4320;51.498;6.556;2023-07-20T05:42:12;7.95;;;6.90;;
8564;SDS011;4320;51.498;6.556;2023-07-20T05:44:38;9.93;;;7.15;;
8564;SDS011;4320;51.498;6.556;2023-07-20T05:47:04;7.78;;;6.95;;
8564;SDS011;4320;51.498;6.556;2023-07-20T05:49:30;9.85;;;7.35;;
8564;SDS011;4320;51.498;6.556;2023-07-20T05:51:55;8.45;;;6.53;;
8564;SDS011;4320;51.498;6.556;2023-07-20T05:54:23;7.53;;;6.38;;
8564;SDS011;4320;51.498;6.556;2023-07-20T05:56:50;6.45;;;5.78;;
8564;SDS011;4320;51.498;6.556;2023-07-20T05:59:15;7.97;;;5.82;;
8564;SDS011;4320;51.498;6.556;2023-07-20T06:01:41;6.07;;;5.30;;
8564;SDS011;4320;51.498;6.556;2023-07-20T06:04:07;6.28;;;5.30;;
8564;SDS011;4320;51.498;6.556;2023-07-20T06:06:36;6.75;;;5.53;;
8564;SDS011;4320;51.498;6.556;2023-07-20T06:09:02;5.70;;;5.10;;
8564;SDS011;4320;51.498;6.556;2023-07-20T06:11:29;7.28;;;5.70;;
8564;SDS011;4320;51.498;6.556;2023-07-20T06:13:55;6.20;;;5.07;;
8564;SDS011;4320;51.498;6.556;2023-07-20T06:16:21;5.60;;;5.10;;
8564;SDS011;4320;51.498;6.556;2023-07-20T06:18:47;5.55;;;4.90;;
8564;SDS011;4320;51.498;6.556;2023-07-20T06:21:13;6.70;;;4.68;;
8564;SDS011;4320;51.498;6.556;2023-07-20T06:23:39;5.25;;;4.65;;
8564;SDS011;4320;51.498;6.556;2023-07-20T06:26:06;4.95;;;3.50;;
8564;SDS011;4320;51.498;6.556;2023-07-20T06:28:32;4.22;;;3.50;;
8564;SDS011;4320;51.498;6.556;2023-07-20T06:30:59;5.53;;;2.92;;
8564;SDS011;4320;51.498;6.556;2023-07-20T06:33:25;3.35;;;3.05;;
8564;SDS011;4320;51.498;6.556;2023-07-20T06:35:50;4.65;;;3.25;;
8564;SDS011;4320;51.498;6.556;2023-07-20T06:38:17;4.28;;;3.38;;
8564;SDS011;4320;51.498;6.556;2023-07-20T06:40:45;3.78;;;3.38;;
8564;SDS011;4320;51.498;6.556;2023-07-20T06:43:11;4.35;;;3.42;;
8564;SDS011;4320;51.498;6.556;2023-07-20T06:45:37;4.57;;;4.07;;
8564;SDS011;4320;51.498;6.556;2023-07-20T06:48:03;6.25;;;4.05;;
8564;SDS011;4320;51.498;6.556;2023-07-20T06:50:29;4.55;;;4.15;;
8564;SDS011;4320;51.498;6.556;2023-07-20T06:52:54;4.75;;;4.00;;
8564;SDS011;4320;51.498;6.556;2023-07-20T06:55:20;4.43;;;4.03;;
8564;SDS011;4320;51.498;6.556;2023-07-20T06:57:46;4.57;;;3.67;;
8564;SDS011;4320;51.498;6.556;2023-07-20T07:00:12;4.88;;;3.85;;
8564;SDS011;4320;51.498;6.556;2023-07-20T07:02:38;4.03;;;3.40;;
8564;SDS011;4320;51.498;6.556;2023-07-20T07:05:03;3.42;;;3.13;;
8564;SDS011;4320;51.498;6.556;2023-07-20T07:07:29;3.30;;;2.97;;
8564;SDS011;4320;51.498;6.556;2023-07-20T07:09:55;3.55;;;3.25;;
8564;SDS011;4320;51.498;6.556;2023-07-20T07:12:20;5.35;;;3.30;;
8564;SDS011;4320;51.498;6.556;2023-07-20T07:14:46;3.28;;;2.97;;
8564;SDS011;4320;51.498;6.556;2023-07-20T07:17:12;4.00;;;2.70;;
8564;SDS011;4320;51.498;6.556;2023-07-20T07:19:37;3.33;;;3.00;;
8564;SDS011;4320;51.498;6.556;2023-07-20T07:22:03;4.78;;;3.00;;
8564;SDS011;4320;51.498;6.556;2023-07-20T07:24:29;4.78;;;2.72;;
8564;SDS011;4320;51.498;6.556;2023-07-20T07:26:58;3.80;;;2.80;;
8564;SDS011;4320;51.498;6.556;2023-07-20T07:29:24;2.97;;;2.72;;
8564;SDS011;4320;51.498;6.556;2023-07-20T07:31:50;3.42;;;3.05;;
8564;SDS011;4320;51.498;6.556;2023-07-20T07:34:16;4.30;;;2.70;;
8564;SDS011;4320;51.498;6.556;2023-07-20T07:36:42;3.13;;;2.70;;
8564;SDS011;4320;51.498;6.556;2023-07-20T07:39:08;4.53;;;2.85;;
8564;SDS011;4320;51.498;6.556;2023-07-20T07:41:34;2.65;;;2.45;;
8564;SDS011;4320;51.498;6.556;2023-07-20T07:44:00;3.25;;;2.42;;
8564;SDS011;4320;51.498;6.556;2023-07-20T07:46:26;4.85;;;2.90;;
8564;SDS011;4320;51.498;6.556;2023-07-20T07:48:51;3.33;;;2.92;;
8564;SDS011;4320;51.498;6.556;2023-07-20T07:51:18;5.35;;;2.70;;
8564;SDS011;4320;51.498;6.556;2023-07-20T07:53:44;8.52;;;2.70;;
8564;SDS011;4320;51.498;6.556;2023-07-20T07:56:10;3.03;;;2.50;;
8564;SDS011;4320;51.498;6.556;2023-07-20T07:58:36;2.60;;;2.33;;
8564;SDS011;4320;51.498;6.556;2023-07-20T08:01:02;4.80;;;2.30;;
8564;SDS011;4320;51.498;6.556;2023-07-20T08:03:28;2.60;;;2.35;;
8564;SDS011;4320;51.498;6.556;2023-07-20T08:05:54;1.92;;;1.73;;
8564;SDS011;4320;51.498;6.556;2023-07-20T08:08:24;2.38;;;2.17;;
8564;SDS011;4320;51.498;6.556;2023-07-20T08:10:52;1.75;;;1.65;;
8564;SDS011;4320;51.498;6.556;2023-07-20T08:13:19;2.08;;;1.80;;
8564;SDS011;4320;51.498;6.556;2023-07-20T08:15:45;2.45;;;1.50;;
8564;SDS011;4320;51.498;6.556;2023-07-20T08:18:16;1.50;;;1.40;;
8564;SDS011;4320;51.498;6.556;2023-07-20T08:20:45;2.10;;;1.60;;
8564;SDS011;4320;51.498;6.556;2023-07-20T08:23:11;1.85;;;1.63;;
8564;SDS011;4320;51.498;6.556;2023-07-20T08:25:38;1.88;;;1.77;;
8564;SDS011;4320;51.498;6.556;2023-07-20T08:28:06;1.65;;;1.55;;
8564;SDS011;4320;51.498;6.556;2023-07-20T08:30:39;2.45;;;1.30;;
8564;SDS011;4320;51.498;6.556;2023-07-20T08:33:07;1.48;;;1.38;;
8564;SDS011;4320;51.498;6.556;2023-07-20T08:35:33;1.83;;;1.70;;
8564;SDS011;4320;51.498;6.556;2023-07-20T08:37:58;1.45;;;1.27;;
8564;SDS011;4320;51.498;6.556;2023-07-20T08:40:24;1.15;;;1.05;;
8564;SDS011;4320;51.498;6.556;2023-07-20T08:42:50;3.78;;;1.27;;
8564;SDS011;4320;51.498;6.556;2023-07-20T08:45:16;1.58;;;1.48;;
8564;SDS011;4320;51.498;6.556;2023-07-20T08:47:43;1.88;;;1.77;;
8564;SDS011;4320;51.498;6.556;2023-07-20T08:50:10;1.88;;;1.60;;
8564;SDS011;4320;51.498;6.556;2023-07-20T08:52:37;1.70;;;1.60;;
8564;SDS011;4320;51.498;6.556;2023-07-20T08:55:03;1.63;;;1.52;;
8564;SDS011;4320;51.498;6.556;2023-07-20T08:57:30;1.83;;;1.23;;
8564;SDS011;4320;51.498;6.556;2023-07-20T08:59:58;1.63;;;1.20;;
8564;SDS011;4320;51.498;6.556;2023-07-20T09:02:26;1.42;;;1.30;;
8564;SDS011;4320;51.498;6.556;2023-07-20T09:04:52;1.40;;;1.30;;
8564;SDS011;4320;51.498;6.556;2023-07-20T09:07:18;1.65;;;1.45;;
8564;SDS011;4320;51.498;6.556;2023-07-20T09:09:45;1.30;;;1.20;;
8564;SDS011;4320;51.498;6.556;2023-07-20T09:12:14;1.50;;;1.33;;
8564;SDS011;4320;51.498;6.556;2023-07-20T09:14:42;1.40;;;1.30;;
8564;SDS011;4320;51.498;6.556;2023-07-20T09:17:12;2.22;;;1.40;;
8564;SDS011;4320;51.498;6.556;2023-07-20T09:19:39;2.05;;;1.10;;
8564;SDS011;4320;51.498;6.556;2023-07-20T09:22:10;1.10;;;1.10;;
8564;SDS011;4320;51.498;6.556;2023-07-20T09:24:36;3.70;;;1.35;;
8564;SDS011;4320;51.498;6.556;2023-07-20T09:27:02;1.60;;;1.30;;
8564;SDS011;4320;51.498;6.556;2023-07-20T09:29:30;1.33;;;1.23;;
8564;SDS011;4320;51.498;6.556;2023-07-20T09:32:02;1.23;;;1.08;;
8564;SDS011;4320;51.498;6.556;2023-07-20T09:34:29;1.40;;;1.13;;
8564;SDS011;4320;51.498;6.556;2023-07-20T09:36:58;1.92;;;1.15;;
8564;SDS011;4320;51.498;6.556;2023-07-20T09:39:25;1.75;;;1.10;;
8564;SDS011;4320;51.498;6.556;2023-07-20T09:41:51;2.05;;;1.17;;
8564;SDS011;4320;51.498;6.556;2023-07-20T09:44:17;1.30;;;1.20;;
8564;SDS011;4320;51.498;6.556;2023-07-20T09:46:44;1.20;;;1.10;;
8564;SDS011;4320;51.498;6.556;2023-07-20T09:49:11;1.30;;;1.20;;
8564;SDS011;4320;51.498;6.556;2023-07-20T09:51:37;1.48;;;1.30;;
8564;SDS011;4320;51.498;6.556;2023-07-20T09:54:03;1.80;;;1.20;;
8564;SDS011;4320;51.498;6.556;2023-07-20T09:56:29;1.60;;;1.30;;
8564;SDS011;4320;51.498;6.556;2023-07-20T09:58:56;2.50;;;1.33;;
8564;SDS011;4320;51.498;6.556;2023-07-20T10:01:22;2.15;;;1.33;;
8564;SDS011;4320;51.498;6.556;2023-07-20T10:03:50;0.98;;;0.90;;
8564;SDS011;4320;51.498;6.556;2023-07-20T10:06:20;1.67;;;1.30;;
8564;SDS011;4320;51.498;6.556;2023-07-20T10:08:50;2.88;;;1.30;;
8564;SDS011;4320;51.498;6.556;2023-07-20T10:11:18;2.28;;;1.20;;
8564;SDS011;4320;51.498;6.556;2023-07-20T10:13:46;1.17;;;1.08;;
8564;SDS011;4320;51.498;6.556;2023-07-20T10:16:24;1.55;;;1.15;;
8564;SDS011;4320;51.498;6.556;2023-07-20T10:19:05;1.10;;;1.00;;
8564;SDS011;4320;51.498;6.556;2023-07-20T10:21:37;1.23;;;1.13;;
8564;SDS011;4320;51.498;6.556;2023-07-20T10:24:07;0.90;;;0.90;;
8564;SDS011;4320;51.498;6.556;2023-07-20T10:26:34;0.90;;;0.90;;
8564;SDS011;4320;51.498;6.556;2023-07-20T10:29:00;1.20;;;1.10;;
8564;SDS011;4320;51.498;6.556;2023-07-20T10:31:26;1.90;;;1.00;;
8564;SDS011;4320;51.498;6.556;2023-07-20T10:33:54;1.10;;;1.10;;
8564;SDS011;4320;51.498;6.556;2023-07-20T10:36:25;1.60;;;1.10;;
8564;SDS011;4320;51.498;6.556;2023-07-20T10:38:55;1.50;;;1.10;;
8564;SDS011;4320;51.498;6.556;2023-07-20T10:41:23;1.00;;;1.00;;
8564;SDS011;4320;51.498;6.556;2023-07-20T10:44:02;2.05;;;1.20;;
8564;SDS011;4320;51.498;6.556;2023-07-20T10:46:43;3.60;;;1.15;;
8564;SDS011;4320;51.498;6.556;2023-07-20T10:49:10;3.30;;;1.23;;
8564;SDS011;4320;51.498;6.556;2023-07-20T10:51:44;1.48;;;0.93;;
8564;SDS011;4320;51.498;6.556;2023-07-20T10:56:43;1.90;;;1.10;;
8564;SDS011;4320;51.498;6.556;2023-07-20T11:01:45;2.50;;;1.17;;
8564;SDS011;4320;51.498;6.556;2023-07-20T11:04:12;1.25;;;1.13;;
8564;SDS011;4320;51.498;6.556;2023-07-20T11:06:38;1.17;;;1.00;;
8564;SDS011;4320;51.498;6.556;2023-07-20T11:09:09;2.08;;;0.98;;
8564;SDS011;4320;51.498;6.556;2023-07-20T11:11:42;2.03;;;0.85;;
8564;SDS011;4320;51.498;6.556;2023-07-20T11:19:06;1.00;;;1.00;;
8564;SDS011;4320;51.498;6.556;2023-07-20T11:21:43;0.95;;;0.93;;
8564;SDS011;4320;51.498;6.556;2023-07-20T11:24:10;2.25;;;1.17;;
8564;SDS011;4320;51.498;6.556;2023-07-20T11:26:56;1.20;;;1.10;;
8564;SDS011;4320;51.498;6.556;2023-07-20T11:29:23;1.38;;;1.00;;
8564;SDS011;4320;51.498;6.556;2023-07-20T11:31:50;2.17;;;1.13;;
8564;SDS011;4320;51.498;6.556;2023-07-20T11:34:17;1.30;;;1.20;;
8564;SDS011;4320;51.498;6.556;2023-07-20T11:36:45;2.63;;;1.20;;
8564;SDS011;4320;51.498;6.556;2023-07-20T11:39:16;0.95;;;0.95;;
8564;SDS011;4320;51.498;6.556;2023-07-20T11:41:50;1.00;;;1.00;;
8564;SDS011;4320;51.498;6.556;2023-07-20T11:44:17;2.08;;;1.15;;
8564;SDS011;4320;51.498;6.556;2023-07-20T11:46:43;1.38;;;1.00;;
8564;SDS011;4320;51.498;6.556;2023-07-20T11:49:10;1.73;;;1.15;;
8564;SDS011;4320;51.498;6.556;2023-07-20T11:51:36;2.17;;;1.20;;
8564;SDS011;4320;51.498;6.556;2023-07-20T11:54:03;1.95;;;1.08;;
8564;SDS011;4320;51.498;6.556;2023-07-20T11:56:31;0.98;;;0.98;;
8564;SDS011;4320;51.498;6.556;2023-07-20T11:58:59;1.17;;;1.05;;
8564;SDS011;4320;51.498;6.556;2023-07-20T12:01:26;0.90;;;0.90;;
8564;SDS011;4320;51.498;6.556;2023-07-20T12:03:57;1.00;;;0.80;;
8564;SDS011;4320;51.498;6.556;2023-07-20T12:06:25;2.05;;;1.08;;
8564;SDS011;4320;51.498;6.556;2023-07-20T12:08:54;0.90;;;0.90;;
8564;SDS011;4320;51.498;6.556;2023-07-20T12:11:35;1.85;;;1.02;;
8564;SDS011;4320;51.498;6.556;2023-07-20T12:14:08;1.75;;;0.90;;
8564;SDS011;4320;51.498;6.556;2023-07-20T12:16:35;1.45;;;1.00;;
8564;SDS011;4320;51.498;6.556;2023-07-20T12:19:07;1.60;;;1.20;;
8564;SDS011;4320;51.498;6.556;2023-07-20T12:21:36;1.52;;;1.10;;
8564;SDS011;4320;51.498;6.556;2023-07-20T12:24:07;1.10;;;1.00;;
8564;SDS011;4320;51.498;6.556;2023-07-20T12:26:36;1.00;;;1.00;;
8564;SDS011;4320;51.498;6.556;2023-07-20T12:29:02;1.10;;;1.00;;
8564;SDS011;4320;51.498;6.556;2023-07-20T12:31:29;2.38;;;1.10;;
8564;SDS011;4320;51.498;6.556;2023-07-20T12:33:56;1.08;;;0.98;;
8564;SDS011;4320;51.498;6.556;2023-07-20T12:36:23;1.73;;;1.08;;
8564;SDS011;4320;51.498;6.556;2023-07-20T12:38:49;1.25;;;1.08;;
8564;SDS011;4320;51.498;6.556;2023-07-20T12:41:15;1.20;;;1.08;;
8564;SDS011;4320;51.498;6.556;2023-07-20T12:43:41;1.13;;;1.08;;
8564;SDS011;4320;51.498;6.556;2023-07-20T12:46:07;1.20;;;0.88;;
8564;SDS011;4320;51.498;6.556;2023-07-20T12:48:33;1.05;;;1.05;;
8564;SDS011;4320;51.498;6.556;2023-07-20T12:51:01;1.17;;;1.08;;
8564;SDS011;4320;51.498;6.556;2023-07-20T12:53:28;1.00;;;1.00;;
8564;SDS011;4320;51.498;6.556;2023-07-20T12:55:53;1.15;;;1.00;;
8564;SDS011;4320;51.498;6.556;2023-07-20T12:58:19;1.98;;;1.02;;
8564;SDS011;4320;51.498;6.556;2023-07-20T13:00:45;1.10;;;0.98;;
8564;SDS011;4320;51.498;6.556;2023-07-20T13:03:10;2.15;;;1.00;;
8564;SDS011;4320;51.498;6.556;2023-07-20T13:05:36;1.10;;;1.00;;
8564;SDS011;4320;51.498;6.556;2023-07-20T13:08:02;1.40;;;1.30;;
8564;SDS011;4320;51.498;6.556;2023-07-20T13:10:27;2.35;;;1.33;;
8564;SDS011;4320;51.498;6.556;2023-07-20T13:12:54;2.70;;;1.00;;
8564;SDS011;4320;51.498;6.556;2023-07-20T13:15:20;2.35;;;1.30;;
8564;SDS011;4320;51.498;6.556;2023-07-20T13:17:45;1.00;;;1.00;;
8564;SDS011;4320;51.498;6.556;2023-07-20T13:20:11;1.65;;;1.27;;
8564;SDS011;4320;51.498;6.556;2023-07-20T13:22:37;1.05;;;0.95;;
8564;SDS011;4320;51.498;6.556;2023-07-20T13:25:03;0.98;;;0.95;;
8564;SDS011;4320;51.498;6.556;2023-07-20T13:27:29;1.95;;;1.15;;
8564;SDS011;4320;51.498;6.556;2023-07-20T13:29:56;2.90;;;1.40;;
8564;SDS011;4320;51.498;6.556;2023-07-20T13:32:23;1.58;;;1.20;;
8564;SDS011;4320;51.498;6.556;2023-07-20T13:34:48;1.73;;;1.27;;
8564;SDS011;4320;51.498;6.556;2023-07-20T13:37:14;1.05;;;0.98;;
8564;SDS011;4320;51.498;6.556;2023-07-20T13:39:41;1.65;;;1.20;;
8564;SDS011;4320;51.498;6.556;2023-07-20T13:42:07;0.98;;;0.93;;
8564;SDS011;4320;51.498;6.556;2023-07-20T13:44:34;1.20;;;1.10;;
8564;SDS011;4320;51.498;6.556;2023-07-20T13:47:00;1.55;;;1.10;;
8564;SDS011;4320;51.498;6.556;2023-07-20T13:49:26;1.23;;;1.13;;
8564;SDS011;4320;51.498;6.556;2023-07-20T13:51:52;1.17;;;1.02;;
8564;SDS011;4320;51.498;6.556;2023-07-20T13:54:18;1.48;;;1.13;;
8564;SDS011;4320;51.498;6.556;2023-07-20T13:56:44;3.67;;;1.45;;
8564;SDS011;4320;51.498;6.556;2023-07-20T13:59:09;2.90;;;1.30;;
8564;SDS011;4320;51.498;6.556;2023-07-20T14:01:35;2.33;;;1.13;;
8564;SDS011;4320;51.498;6.556;2023-07-20T14:04:01;1.20;;;1.10;;
8564;SDS011;4320;51.498;6.556;2023-07-20T14:06:30;2.05;;;1.20;;
8564;SDS011;4320;51.498;6.556;2023-07-20T14:08:58;1.50;;;1.40;;
8564;SDS011;4320;51.498;6.556;2023-07-20T14:11:24;2.50;;;1.13;;
8564;SDS011;4320;51.498;6.556;2023-07-20T14:13:50;1.13;;;1.02;;
8564;SDS011;4320;51.498;6.556;2023-07-20T14:16:18;1.95;;;1.33;;
8564;SDS011;4320;51.498;6.556;2023-07-20T14:18:47;1.98;;;1.10;;
8564;SDS011;4320;51.498;6.556;2023-07-20T14:21:14;3.72;;;1.20;;
8564;SDS011;4320;51.498;6.556;2023-07-20T14:23:40;1.75;;;1.63;;
8564;SDS011;4320;51.498;6.556;2023-07-20T14:26:05;3.08;;;1.60;;
8564;SDS011;4320;51.498;6.556;2023-07-20T14:28:32;1.63;;;1.40;;
8564;SDS011;4320;51.498;6.556;2023-07-20T14:30:58;2.63;;;1.60;;
8564;SDS011;4320;51.498;6.556;2023-07-20T14:33:23;1.40;;;1.30;;
8564;SDS011;4320;51.498;6.556;2023-07-20T14:35:49;2.30;;;1.90;;
8564;SDS011;4320;51.498;6.556;2023-07-20T14:38:15;1.73;;;1.63;;
8564;SDS011;4320;51.498;6.556;2023-07-20T14:40:40;1.40;;;1.30;;
8564;SDS011;4320;51.498;6.556;2023-07-20T14:43:06;1.77;;;1.20;;
8564;SDS011;4320;51.498;6.556;2023-07-20T14:45:32;1.30;;;1.20;;
8564;SDS011;4320;51.498;6.556;2023-07-20T14:47:57;1.63;;;1.33;;
8564;SDS011;4320;51.498;6.556;2023-07-20T14:50:24;1.17;;;1.15;;
8564;SDS011;4320;51.498;6.556;2023-07-20T14:52:49;1.75;;;1.20;;
8564;SDS011;4320;51.498;6.556;2023-07-20T14:55:15;1.40;;;1.30;;
8564;SDS011;4320;51.498;6.556;2023-07-20T14:57:42;1.65;;;1.50;;
8564;SDS011;4320;51.498;6.556;2023-07-20T15:00:08;1.30;;;1.15;;
8564;SDS011;4320;51.498;6.556;2023-07-20T15:02:38;1.45;;;1.35;;
8564;SDS011;4320;51.498;6.556;2023-07-20T15:05:09;1.30;;;1.20;;
8564;SDS011;4320;51.498;6.556;2023-07-20T15:07:35;1.08;;;1.02;;
8564;SDS011;4320;51.498;6.556;2023-07-20T15:10:02;1.17;;;1.08;;
8564;SDS011;4320;51.498;6.556;2023-07-20T15:12:28;1.90;;;1.20;;
8564;SDS011;4320;51.498;6.556;2023-07-20T15:15:13;2.13;;;1.05;;
8564;SDS011;4320;51.498;6.556;2023-07-20T15:17:41;1.50;;;1.40;;
8564;SDS011;4320;51.498;6.556;2023-07-20T15:20:09;3.15;;;1.77;;
8564;SDS011;4320;51.498;6.556;2023-07-20T15:22:36;2.33;;;1.40;;
8564;SDS011;4320;51.498;6.556;2023-07-20T15:25:03;3.30;;;1.38;;
8564;SDS011;4320;51.498;6.556;2023-07-20T15:27:29;1.73;;;1.20;;